createdAt,value
2023-01-13T00:01:08.498Z,10.00
2023-01-13T00:03:38.634Z,9.90
2023-01-13T00:06:07.977Z,9.90
2023-01-13T00:08:36.054Z,9.90
2023-01-13T00:11:03.986Z,10.00
2023-01-13T00:13:33.766Z,10.00
2023-01-13T00:16:03.294Z,9.90
2023-01-13T00:18:31.453Z,9.90
2023-01-13T00:21:01.918Z,9.90
2023-01-13T00:23:31.915Z,9.90
2023-01-13T00:26:01.043Z,9.90
2023-01-13T00:28:29.737Z,9.90
2023-01-13T00:30:58.648Z,9.90
2023-01-13T00:33:26.959Z,9.90
2023-01-13T00:35:58.493Z,10.00
2023-01-13T00:38:28.808Z,10.00
2023-01-13T00:40:57.849Z,10.00
2023-01-13T00:43:25.491Z,10.10
2023-01-13T00:45:54.513Z,10.10
2023-01-13T00:48:23.908Z,10.20
2023-01-13T00:50:57.637Z,10.20
2023-01-13T00:53:27.640Z,10.20
2023-01-13T00:56:02.005Z,10.30
2023-01-13T00:58:32.775Z,10.30
2023-01-13T01:01:01.950Z,10.30
2023-01-13T01:03:30.579Z,10.30
2023-01-13T01:05:58.651Z,10.30
2023-01-13T01:08:27.938Z,10.30
2023-01-13T01:11:02.590Z,10.30
2023-01-13T01:13:30.637Z,10.30
2023-01-13T01:15:58.622Z,10.30
2023-01-13T01:18:26.799Z,10.30
2023-01-13T01:20:54.786Z,10.30
2023-01-13T01:23:22.877Z,10.20
2023-01-13T01:25:52.214Z,10.20
2023-01-13T01:28:20.803Z,10.20
2023-01-13T01:30:48.822Z,10.20
2023-01-13T01:33:16.980Z,10.10
2023-01-13T01:35:44.901Z,10.20
2023-01-13T01:38:12.893Z,10.20
2023-01-13T01:40:40.873Z,10.20
2023-01-13T01:43:33.517Z,10.20
2023-01-13T01:46:01.530Z,10.30
2023-01-13T01:48:33.909Z,10.30
2023-01-13T01:51:02.767Z,10.30
2023-01-13T01:53:32.145Z,10.30
2023-01-13T01:56:01.372Z,10.40
2023-01-13T01:58:33.687Z,10.40
2023-01-13T02:01:02.159Z,10.40
2023-01-13T02:03:31.207Z,10.40
2023-01-13T02:05:59.208Z,10.50
2023-01-13T02:08:27.284Z,10.50
2023-01-13T02:10:55.447Z,10.50
2023-01-13T02:13:24.115Z,10.50
2023-01-13T02:15:59.865Z,10.50
2023-01-13T02:18:39.424Z,10.50
2023-01-13T02:21:36.298Z,10.50
2023-01-13T02:24:56.113Z,10.50
2023-01-13T02:27:48.866Z,10.60
2023-01-13T02:30:41.604Z,10.50
2023-01-13T02:33:23.682Z,10.50
2023-01-13T02:35:55.709Z,10.50
2023-01-13T02:38:29.866Z,10.50
2023-01-13T02:41:21.206Z,10.50
2023-01-13T02:44:08.308Z,10.50
2023-01-13T02:46:42.902Z,10.50
2023-01-13T02:49:17.985Z,10.50
2023-01-13T02:51:48.488Z,10.50
2023-01-13T02:54:22.042Z,10.50
2023-01-13T02:56:52.019Z,10.50
2023-01-13T02:59:21.351Z,10.60
2023-01-13T03:01:50.974Z,10.60
2023-01-13T03:04:47.381Z,10.50
2023-01-13T03:07:28.127Z,10.50
2023-01-13T03:10:02.872Z,10.50
2023-01-13T03:12:41.158Z,10.50
2023-01-13T03:15:17.744Z,10.50
2023-01-13T03:17:54.767Z,10.50
2023-01-13T03:20:27.143Z,10.50
2023-01-13T03:23:04.199Z,10.50
2023-01-13T03:25:35.951Z,10.50
2023-01-13T03:28:05.727Z,10.50
2023-01-13T03:30:36.410Z,10.50
2023-01-13T03:33:10.661Z,10.40
2023-01-13T03:35:41.424Z,10.40
2023-01-13T03:38:14.406Z,10.40
2023-01-13T03:40:48.964Z,10.40
2023-01-13T03:43:40.761Z,10.40
2023-01-13T03:46:14.093Z,10.40
2023-01-13T03:48:46.659Z,10.50
2023-01-13T03:51:20.323Z,10.50
2023-01-13T03:53:52.134Z,10.50
2023-01-13T03:56:25.504Z,10.60
2023-01-13T03:58:54.750Z,10.60
2023-01-13T04:01:27.577Z,10.60
2023-01-13T04:04:01.854Z,10.60
2023-01-13T04:06:36.255Z,10.60
2023-01-13T04:09:16.921Z,10.60
2023-01-13T04:11:50.120Z,10.50
2023-01-13T04:14:21.796Z,10.40
2023-01-13T04:16:50.196Z,10.30
2023-01-13T04:19:19.389Z,10.30
2023-01-13T04:21:47.282Z,10.20
2023-01-13T04:24:15.121Z,10.20
2023-01-13T04:26:42.962Z,10.10
2023-01-13T04:29:10.758Z,10.20
2023-01-13T04:31:39.091Z,10.20
2023-01-13T04:34:06.868Z,10.20
2023-01-13T04:36:35.999Z,10.20
2023-01-13T04:39:03.928Z,10.20
2023-01-13T04:41:52.672Z,10.20
2023-01-13T04:44:20.548Z,10.30
2023-01-13T04:46:48.433Z,10.30
2023-01-13T04:49:16.245Z,10.30
2023-01-13T04:51:45.422Z,10.30
2023-01-13T04:54:13.434Z,10.40
2023-01-13T04:56:41.201Z,10.30
2023-01-13T04:59:10.403Z,10.30
2023-01-13T05:01:38.515Z,10.30
2023-01-13T05:04:07.585Z,10.20
2023-01-13T05:06:35.813Z,10.20
2023-01-13T05:09:05.036Z,10.20
2023-01-13T05:11:50.346Z,10.20
2023-01-13T05:14:35.656Z,10.20
2023-01-13T05:17:03.649Z,10.30
2023-01-13T05:19:33.562Z,10.30
2023-01-13T05:22:20.459Z,10.30
2023-01-13T05:25:07.197Z,10.30
2023-01-13T05:27:35.473Z,10.40
2023-01-13T05:30:03.348Z,10.40
2023-01-13T05:32:31.194Z,10.40
2023-01-13T05:34:59.075Z,10.40
2023-01-13T05:37:27.782Z,10.30
2023-01-13T05:40:14.343Z,10.30
2023-01-13T05:42:59.917Z,10.20
2023-01-13T05:45:27.737Z,10.20
2023-01-13T05:47:55.494Z,10.10
2023-01-13T05:50:23.740Z,10.10
2023-01-13T05:52:51.629Z,10.10
2023-01-13T05:55:20.736Z,10.00
2023-01-13T05:57:48.577Z,10.00
2023-01-13T06:00:17.690Z,10.00
2023-01-13T06:02:45.534Z,9.90
2023-01-13T06:05:13.357Z,10.00
2023-01-13T06:07:41.137Z,10.00
2023-01-13T06:10:10.556Z,10.10
2023-01-13T06:12:39.657Z,10.20
2023-01-13T06:15:08.392Z,10.20
2023-01-13T06:17:36.171Z,10.20
2023-01-13T06:20:04.419Z,10.30
2023-01-13T06:22:35.546Z,10.30
2023-01-13T06:25:04.387Z,10.40
2023-01-13T06:27:32.184Z,10.40
2023-01-13T06:30:01.360Z,10.50
2023-01-13T06:32:34.488Z,10.50
2023-01-13T06:35:08.112Z,10.50
2023-01-13T06:37:37.260Z,10.50
2023-01-13T06:40:07.498Z,10.60
2023-01-13T06:42:55.400Z,10.60
2023-01-13T06:45:26.175Z,10.60
2023-01-13T06:47:54.566Z,10.60
2023-01-13T06:50:22.325Z,10.60
2023-01-13T06:52:50.116Z,10.60
2023-01-13T06:55:18.331Z,10.60
2023-01-13T06:57:51.040Z,10.60
2023-01-13T07:00:19.748Z,10.60
2023-01-13T07:02:49.087Z,10.70
2023-01-13T07:05:18.221Z,10.50
2023-01-13T07:07:46.252Z,9.90
2023-01-13T07:10:22.184Z,9.20
2023-01-13T07:13:08.171Z,8.70
2023-01-13T07:15:36.469Z,8.40
2023-01-13T07:18:05.773Z,8.10
2023-01-13T07:20:33.928Z,7.80
2023-01-13T07:23:01.782Z,7.50
2023-01-13T07:25:29.566Z,7.30
2023-01-13T07:27:59.314Z,7.20
2023-01-13T07:30:27.128Z,7.00
2023-01-13T07:32:54.948Z,7.00
2023-01-13T07:35:24.848Z,6.90
2023-01-13T07:37:52.693Z,6.80
2023-01-13T07:40:20.517Z,6.80
2023-01-13T07:43:05.768Z,6.80
2023-01-13T07:45:33.562Z,6.80
2023-01-13T07:48:01.359Z,6.80
2023-01-13T07:50:30.505Z,6.90
2023-01-13T07:52:59.270Z,6.90
2023-01-13T07:55:27.033Z,7.00
2023-01-13T07:57:54.819Z,7.00
2023-01-13T08:00:23.602Z,7.10
2023-01-13T08:02:51.573Z,7.10
2023-01-13T08:05:19.421Z,7.10
2023-01-13T08:07:48.562Z,7.10
2023-01-13T08:10:17.065Z,7.10
2023-01-13T08:13:02.439Z,7.20
2023-01-13T08:15:30.642Z,7.20
2023-01-13T08:17:59.317Z,7.30
2023-01-13T08:20:27.180Z,7.30
2023-01-13T08:22:58.877Z,7.30
2023-01-13T08:25:27.538Z,7.40
2023-01-13T08:27:55.950Z,7.30
2023-01-13T08:30:24.157Z,7.30
2023-01-13T08:32:51.984Z,7.30
2023-01-13T08:35:20.918Z,7.30
2023-01-13T08:37:49.371Z,7.30
2023-01-13T08:40:21.699Z,7.30
2023-01-13T08:42:49.573Z,7.30
2023-01-13T08:45:17.806Z,7.30
2023-01-13T08:47:45.583Z,7.30
2023-01-13T08:50:13.606Z,7.30
2023-01-13T08:52:42.014Z,7.40
2023-01-13T08:55:10.476Z,7.20
2023-01-13T08:57:39.632Z,7.20
2023-01-13T09:00:09.530Z,7.20
2023-01-13T09:02:38.428Z,7.20
2023-01-13T09:05:07.327Z,7.10
2023-01-13T09:07:36.092Z,7.20
2023-01-13T09:10:04.678Z,7.10
2023-01-13T09:12:50.340Z,7.10
2023-01-13T09:15:19.768Z,7.20
2023-01-13T09:17:47.930Z,7.10
2023-01-13T09:20:15.740Z,7.10
2023-01-13T09:22:43.534Z,7.10
2023-01-13T09:25:12.528Z,7.20
2023-01-13T09:27:40.448Z,7.20
2023-01-13T09:30:09.607Z,7.30
2023-01-13T09:32:39.353Z,7.30
2023-01-13T09:35:07.645Z,7.40
2023-01-13T09:37:38.429Z,7.40
2023-01-13T09:40:09.955Z,7.40
2023-01-13T09:43:04.453Z,7.40
2023-01-13T09:45:38.486Z,7.40
2023-01-13T09:48:14.141Z,7.30
2023-01-13T09:50:59.236Z,7.30
2023-01-13T09:53:29.628Z,7.20
2023-01-13T09:55:57.630Z,7.10
2023-01-13T09:58:25.851Z,7.10
2023-01-13T10:01:05.933Z,7.10
2023-01-13T10:03:36.632Z,7.10
2023-01-13T10:06:11.193Z,7.20
2023-01-13T10:08:41.728Z,7.20
2023-01-13T10:11:29.625Z,7.20
2023-01-13T10:14:00.497Z,7.20
2023-01-13T10:16:42.095Z,7.10
2023-01-13T10:19:19.529Z,7.10
2023-01-13T10:22:09.433Z,7.10
2023-01-13T10:24:54.573Z,7.10
2023-01-13T10:27:30.293Z,7.10
2023-01-13T10:29:58.149Z,7.10
2023-01-13T10:32:25.908Z,7.10
2023-01-13T10:34:57.657Z,7.10
2023-01-13T10:37:27.668Z,7.10
2023-01-13T10:39:57.116Z,7.10
2023-01-13T10:42:25.702Z,7.20
2023-01-13T10:44:55.307Z,7.20
2023-01-13T10:47:26.374Z,7.20
2023-01-13T10:50:22.386Z,7.40
2023-01-13T10:52:59.325Z,7.60
2023-01-13T10:55:30.189Z,7.80
2023-01-13T10:57:58.028Z,8.10
2023-01-13T11:00:31.130Z,8.30
2023-01-13T11:03:17.036Z,8.50
2023-01-13T11:05:54.862Z,8.60
2023-01-13T11:08:25.656Z,8.60
2023-01-13T11:10:56.417Z,8.60
2023-01-13T11:13:31.524Z,8.50
2023-01-13T11:16:04.528Z,8.60
2023-01-13T11:18:43.505Z,8.50
2023-01-13T11:21:21.520Z,8.40
2023-01-13T11:23:56.271Z,8.40
2023-01-13T11:26:30.830Z,8.30
2023-01-13T11:29:06.579Z,8.30
2023-01-13T11:31:38.531Z,8.30
2023-01-13T11:34:14.404Z,8.40
2023-01-13T11:36:48.644Z,8.40
2023-01-13T11:39:23.303Z,8.40
2023-01-13T11:42:12.306Z,8.40
2023-01-13T11:44:44.464Z,8.50
2023-01-13T11:47:14.354Z,8.50
2023-01-13T11:49:45.324Z,8.50
2023-01-13T11:52:20.200Z,8.60
2023-01-13T11:55:15.591Z,8.70
2023-01-13T11:58:15.057Z,8.70
2023-01-13T12:01:06.302Z,8.80
2023-01-13T12:03:39.249Z,8.70
2023-01-13T12:06:20.482Z,8.80
2023-01-13T12:09:09.887Z,8.70
2023-01-13T12:12:06.227Z,8.80
2023-01-13T12:14:44.936Z,8.80
2023-01-13T12:17:23.408Z,8.80
2023-01-13T12:19:52.141Z,8.90
2023-01-13T12:22:24.910Z,8.90
2023-01-13T12:25:00.153Z,8.90
2023-01-13T12:27:39.163Z,8.90
2023-01-13T12:30:23.064Z,8.80
2023-01-13T12:32:53.360Z,8.90
2023-01-13T12:35:34.813Z,8.90
2023-01-13T12:38:09.224Z,8.90
2023-01-13T12:40:52.393Z,8.80
2023-01-13T12:43:39.818Z,8.80
2023-01-13T12:46:35.291Z,8.80
2023-01-13T12:49:08.273Z,8.90
2023-01-13T12:51:37.989Z,9.00
2023-01-13T12:54:54.709Z,9.00
2023-01-13T12:57:25.243Z,9.10
2023-01-13T13:00:16.266Z,9.10
2023-01-13T13:02:45.082Z,9.30
2023-01-13T13:05:47.881Z,9.30
2023-01-13T13:08:23.935Z,9.20
2023-01-13T13:11:07.370Z,9.20
2023-01-13T13:13:45.051Z,9.20
2023-01-13T13:16:49.537Z,9.10
2023-01-13T13:19:43.979Z,9.00
2023-01-13T13:22:39.796Z,8.90
2023-01-13T13:25:25.583Z,8.80
2023-01-13T13:28:08.716Z,8.70
2023-01-13T13:30:40.270Z,8.60
2023-01-13T13:33:25.825Z,8.60
2023-01-13T13:36:06.841Z,8.60
2023-01-13T13:39:17.022Z,8.60
2023-01-13T13:42:06.699Z,8.50
2023-01-13T13:45:01.589Z,8.40
2023-01-13T13:47:37.693Z,8.50
2023-01-13T13:50:13.743Z,8.30
2023-01-13T13:52:45.852Z,8.20
2023-01-13T13:55:19.536Z,8.00
2023-01-13T13:57:49.143Z,8.10
2023-01-13T14:00:24.473Z,8.00
2023-01-13T14:02:55.466Z,8.10
2023-01-13T14:05:29.205Z,8.00
2023-01-13T14:08:02.358Z,7.90
2023-01-13T14:10:32.373Z,8.00
2023-01-13T14:13:01.560Z,8.10
2023-01-13T14:15:34.435Z,8.20
2023-01-13T14:18:06.888Z,8.30
2023-01-13T14:20:36.846Z,8.40
2023-01-13T14:23:05.971Z,8.50
2023-01-13T14:25:38.283Z,8.50
2023-01-13T14:28:21.539Z,8.50
2023-01-13T14:30:50.924Z,8.40
2023-01-13T14:33:23.032Z,8.30
2023-01-13T14:36:15.585Z,8.20
2023-01-13T14:38:45.148Z,8.20
2023-01-13T14:41:23.628Z,8.10
2023-01-13T14:43:54.206Z,8.10
2023-01-13T14:46:25.376Z,8.00
2023-01-13T14:49:01.378Z,7.90
2023-01-13T14:51:30.429Z,7.90
2023-01-13T14:53:59.689Z,7.80
2023-01-13T14:56:51.468Z,7.80
2023-01-13T14:59:58.102Z,7.70
2023-01-13T15:02:39.763Z,7.70
2023-01-13T15:05:37.526Z,7.70
2023-01-13T15:08:18.221Z,7.60
2023-01-13T15:10:49.011Z,7.50
2023-01-13T15:13:27.014Z,7.60
2023-01-13T15:15:57.273Z,7.50
2023-01-13T15:18:25.817Z,7.50
2023-01-13T15:20:55.109Z,7.40
2023-01-13T15:23:23.204Z,7.40
2023-01-13T15:25:51.256Z,7.40
2023-01-13T15:28:20.997Z,7.30
2023-01-13T15:30:49.637Z,7.30
2023-01-13T15:33:18.446Z,7.20
2023-01-13T15:35:49.397Z,7.10
2023-01-13T15:38:20.528Z,7.10
2023-01-13T15:40:49.238Z,7.10
2023-01-13T15:43:36.539Z,7.10
2023-01-13T15:46:32.336Z,7.10
2023-01-13T15:49:08.743Z,7.10
2023-01-13T15:51:36.632Z,7.20
2023-01-13T15:54:05.791Z,7.20
2023-01-13T15:56:37.169Z,7.20
2023-01-13T15:59:05.583Z,7.30
2023-01-13T16:01:33.379Z,7.40
2023-01-13T16:04:01.239Z,7.40
2023-01-13T16:06:32.553Z,7.50
2023-01-13T16:09:02.010Z,7.50
2023-01-13T16:11:32.083Z,7.60
2023-01-13T16:14:00.252Z,7.60
2023-01-13T16:16:29.519Z,7.70
2023-01-13T16:18:57.958Z,7.70
2023-01-13T16:21:25.996Z,7.80
2023-01-13T16:23:53.884Z,7.80
2023-01-13T16:26:23.340Z,7.90
2023-01-13T16:28:54.646Z,7.90
2023-01-13T16:31:29.197Z,8.00
2023-01-13T16:33:57.211Z,8.00
2023-01-13T16:36:25.534Z,8.10
2023-01-13T16:38:54.120Z,8.10
2023-01-13T16:41:24.778Z,8.10
2023-01-13T16:43:54.181Z,8.10
2023-01-13T16:46:25.307Z,8.10
2023-01-13T16:48:54.471Z,8.10
2023-01-13T16:51:23.176Z,8.10
2023-01-13T16:53:51.324Z,8.10
2023-01-13T16:56:24.415Z,8.20
2023-01-13T16:58:55.653Z,8.10
2023-01-13T17:01:26.190Z,8.00
2023-01-13T17:03:55.145Z,8.00
2023-01-13T17:06:27.545Z,7.90
2023-01-13T17:08:57.495Z,7.90
2023-01-13T17:11:25.323Z,7.80
2023-01-13T17:13:54.520Z,7.80
2023-01-13T17:16:24.362Z,7.70
2023-01-13T17:18:52.616Z,7.70
2023-01-13T17:21:20.411Z,7.70
2023-01-13T17:23:48.245Z,7.70
2023-01-13T17:26:33.257Z,7.70
2023-01-13T17:29:03.201Z,7.70
2023-01-13T17:31:31.567Z,7.70
2023-01-13T17:33:59.682Z,7.80
2023-01-13T17:36:27.548Z,7.80
2023-01-13T17:38:55.919Z,7.80
2023-01-13T17:41:24.521Z,7.90
2023-01-13T17:43:53.313Z,7.90
2023-01-13T17:46:23.143Z,7.90
2023-01-13T17:48:52.724Z,8.00
2023-01-13T17:51:23.445Z,8.00
2023-01-13T17:53:51.738Z,8.10
2023-01-13T17:56:19.730Z,8.10
2023-01-13T17:58:47.706Z,8.20
2023-01-13T18:01:17.384Z,8.30
2023-01-13T18:03:47.003Z,8.30
2023-01-13T18:06:17.807Z,8.30
2023-01-13T18:08:45.725Z,8.40
2023-01-13T18:11:13.902Z,8.40
2023-01-13T18:13:42.902Z,8.40
2023-01-13T18:16:13.673Z,8.30
2023-01-13T18:18:44.867Z,8.30
2023-01-13T18:21:38.087Z,8.30
2023-01-13T18:24:24.579Z,8.30
2023-01-13T18:27:09.803Z,8.30
2023-01-13T18:29:37.592Z,8.30
2023-01-13T18:32:07.522Z,8.30
2023-01-13T18:34:35.710Z,8.30
2023-01-13T18:37:06.188Z,8.30
2023-01-13T18:39:34.085Z,8.20
2023-01-13T18:42:19.393Z,8.20
2023-01-13T18:44:47.183Z,8.10
2023-01-13T18:47:14.976Z,8.10
2023-01-13T18:49:42.778Z,8.10
2023-01-13T18:52:12.094Z,8.10
2023-01-13T18:54:39.937Z,8.10
2023-01-13T18:57:07.872Z,8.10
2023-01-13T18:59:35.842Z,8.10
2023-01-13T19:02:09.058Z,8.10
2023-01-13T19:04:36.938Z,8.10
2023-01-13T19:07:05.039Z,8.10
2023-01-13T19:09:34.184Z,8.20
2023-01-13T19:12:05.444Z,8.10
2023-01-13T19:14:37.550Z,8.10
2023-01-13T19:17:09.311Z,8.20
2023-01-13T19:19:40.411Z,8.20
2023-01-13T19:22:09.835Z,8.20
2023-01-13T19:24:41.854Z,8.20
2023-01-13T19:27:09.786Z,8.20
2023-01-13T19:29:37.631Z,8.20
2023-01-13T19:32:13.023Z,8.20
2023-01-13T19:34:41.377Z,8.30
2023-01-13T19:37:09.332Z,8.30
2023-01-13T19:39:38.660Z,8.20
2023-01-13T19:42:24.330Z,8.20
2023-01-13T19:45:09.778Z,8.20
2023-01-13T19:47:38.424Z,8.00
2023-01-13T19:50:08.026Z,7.90
2023-01-13T19:52:36.061Z,7.80
2023-01-13T19:55:05.775Z,7.70
2023-01-13T19:57:33.817Z,7.70
2023-01-13T20:00:01.731Z,7.60
2023-01-13T20:02:31.584Z,7.50
2023-01-13T20:05:00.984Z,7.40
2023-01-13T20:07:30.871Z,7.40
2023-01-13T20:09:58.940Z,7.30
2023-01-13T20:12:29.099Z,7.30
2023-01-13T20:14:57.263Z,7.30
2023-01-13T20:17:25.522Z,7.30
2023-01-13T20:19:53.533Z,7.20
2023-01-13T20:22:21.390Z,7.20
2023-01-13T20:24:54.864Z,7.20
2023-01-13T20:27:23.870Z,7.20
2023-01-13T20:29:53.165Z,7.20
2023-01-13T20:32:20.932Z,7.20
2023-01-13T20:34:48.711Z,7.20
2023-01-13T20:37:16.504Z,7.30
2023-01-13T20:39:45.494Z,7.40
2023-01-13T20:42:31.992Z,7.40
2023-01-13T20:45:01.595Z,7.50
2023-01-13T20:47:30.492Z,7.60
2023-01-13T20:49:58.936Z,7.60
2023-01-13T20:52:26.846Z,7.60
2023-01-13T20:54:54.685Z,7.60
2023-01-13T20:57:23.276Z,7.60
2023-01-13T20:59:51.089Z,7.60
2023-01-13T21:02:22.595Z,7.60
2023-01-13T21:04:50.409Z,7.50
2023-01-13T21:07:18.479Z,7.50
2023-01-13T21:09:46.324Z,7.60
2023-01-13T21:12:33.512Z,7.60
2023-01-13T21:15:20.213Z,7.60
2023-01-13T21:18:09.579Z,7.60
2023-01-13T21:20:39.339Z,7.50
2023-01-13T21:23:07.962Z,7.40
2023-01-13T21:25:37.103Z,7.30
2023-01-13T21:28:07.207Z,7.30
2023-01-13T21:30:36.178Z,7.20
2023-01-13T21:33:06.186Z,7.10
2023-01-13T21:35:34.221Z,7.10
2023-01-13T21:38:02.050Z,7.10
2023-01-13T21:40:29.890Z,7.10
2023-01-13T21:43:15.173Z,7.10
2023-01-13T21:46:00.562Z,7.10
2023-01-13T21:48:30.570Z,7.20
2023-01-13T21:51:01.237Z,7.20
2023-01-13T21:53:29.021Z,7.20
2023-01-13T21:55:56.810Z,7.20
2023-01-13T21:58:24.621Z,7.20
2023-01-13T22:00:52.539Z,7.20
2023-01-13T22:03:20.378Z,7.20
2023-01-13T22:05:54.458Z,7.20
2023-01-13T22:08:22.385Z,7.20
2023-01-13T22:10:58.423Z,7.30
2023-01-13T22:13:44.322Z,7.30
2023-01-13T22:16:12.168Z,7.30
2023-01-13T22:18:39.968Z,7.30
2023-01-13T22:21:09.531Z,7.30
2023-01-13T22:23:37.358Z,7.20
2023-01-13T22:26:06.871Z,7.20
2023-01-13T22:28:40.481Z,7.10
2023-01-13T22:31:10.802Z,7.00
2023-01-13T22:33:39.211Z,7.00
2023-01-13T22:36:09.387Z,6.90
2023-01-13T22:38:38.497Z,6.80
2023-01-13T22:41:09.019Z,6.80
2023-01-13T22:43:38.264Z,6.80
2023-01-13T22:46:08.196Z,6.80
2023-01-13T22:48:36.718Z,6.70
2023-01-13T22:51:10.464Z,6.70
2023-01-13T22:53:39.002Z,6.70
2023-01-13T22:56:07.753Z,6.70
2023-01-13T22:58:35.627Z,6.70
2023-01-13T23:01:11.439Z,6.70
2023-01-13T23:03:39.917Z,6.60
2023-01-13T23:06:09.827Z,6.60
2023-01-13T23:08:37.987Z,6.60
2023-01-13T23:11:07.626Z,6.60
2023-01-13T23:13:36.239Z,6.60
2023-01-13T23:16:04.443Z,6.50
2023-01-13T23:18:32.397Z,6.60
2023-01-13T23:21:04.411Z,6.60
2023-01-13T23:23:34.838Z,6.50
2023-01-13T23:26:03.137Z,6.60
2023-01-13T23:28:31.712Z,6.60
2023-01-13T23:30:59.639Z,6.60
2023-01-13T23:33:27.808Z,6.60
2023-01-13T23:35:59.901Z,6.70
2023-01-13T23:38:28.245Z,6.80
2023-01-13T23:40:57.595Z,6.80
2023-01-13T23:43:26.649Z,6.80
2023-01-13T23:46:02.862Z,6.90
2023-01-13T23:48:30.782Z,6.90
2023-01-13T23:50:59.777Z,6.90
2023-01-13T23:53:33.240Z,6.80
2023-01-13T23:56:03.181Z,6.80
2023-01-13T23:58:31.373Z,6.80
